HCB weather

Centro Corporativo Bosques Heliport
Cuajimalpa, Ciudad de México, Mexico

Public forecast

Using degrees Celsius for public forecast. Weather courtesy of forecast.io.

Closest aviation weather report (METAR) to Centro Corporativo Bosques Heliport

Closest report is Licenciado Benito Juarez International Airport, 10.5 nm (19.5 km) ENE. Retrieved 2020/08/03 18:44 UTC (1 hour ago):

MMMX 031844Z VRB03KT 5SM SCT025 23/12 A3039 NOSIG RMK 8/100 HZY MDT CU

Closest aviation forecast (TAF) to Centro Corporativo Bosques Heliport

Closest forecast is Licenciado Benito Juarez International Airport, 10.5 nm (19.5 km) ENE. Retrieved 2020/08/03 18:36 UTC (1 hour ago):

TAF MMMX 031732Z 0318/0424 12005KT P6SM SCT020 SCT200 TX24/0321Z TN14/0412Z FM032100 12010KT P6SM VC -RA SCT020CB BKN200 TEMPO 0322/0402 4SM TSRA BKN020CB FM040400 34005KT P6SM -RA SCT020 BKN080 BECMG 0406/0407 P6SM FM041200 12005KT 6SM HZ SCT020 BKN080 FM041800 14010KT P6SM SCT020 SCT200